Time;durP1;ratioP1;P1;durP2;ratioP2;P2;SDS_P1;SDS_P2;PMS_P1;PMS_P2;Temp;Humidity;BMP_temperature;BMP_pressure;BME280_temperature;BME280_humidity;BME280_pressure;Samples;Min_cycle;Max_cycle;Signal;HPM_P1;HPM_P2
2022/03/19 00:01:13;;;;;;;32.88;18.90;;;;;;;2.60;75.43;97473.50;5059237;28;20045;-74
2022/03/19 00:03:40;;;;;;;37.15;19.13;;;;;;;2.68;75.63;97480.47;5063248;28;20049;-75
2022/03/19 00:06:06;;;;;;;36.25;20.17;;;;;;;2.72;74.69;97486.97;5049140;28;20464;-75
2022/03/19 00:08:32;;;;;;;38.33;19.55;;;;;;;2.71;75.02;97490.53;5054328;28;20040;-75
2022/03/19 00:10:58;;;;;;;37.53;19.65;;;;;;;2.66;75.52;97482.44;5064978;28;20095;-75
2022/03/19 00:13:23;;;;;;;36.63;18.52;;;;;;;2.60;75.87;97482.16;5061606;28;20525;-75
2022/03/19 00:15:50;;;;;;;36.75;19.17;;;;;;;2.66;75.60;97482.44;5054775;28;20037;-74
2022/03/19 00:18:16;;;;;;;34.53;18.42;;;;;;;2.66;74.99;97488.47;5048218;28;20087;-75
2022/03/19 00:20:42;;;;;;;43.00;20.80;;;;;;;2.64;75.55;97481.81;5048234;28;20541;-74
2022/03/19 00:23:08;;;;;;;36.40;19.17;;;;;;;2.57;75.79;97479.88;5047782;28;20045;-75
2022/03/19 00:25:34;;;;;;;34.92;19.45;;;;;;;2.56;75.36;97475.66;5052498;28;20045;-75
2022/03/19 00:28:00;;;;;;;35.90;19.65;;;;;;;2.54;76.57;97480.22;5062142;28;20143;-74
2022/03/19 00:30:25;;;;;;;35.63;19.40;;;;;;;2.51;76.65;97480.53;5062688;28;20033;-75
2022/03/19 00:32:51;;;;;;;36.35;19.52;;;;;;;2.50;76.17;97494.53;5049214;28;20680;-73
2022/03/19 00:35:17;;;;;;;39.28;19.42;;;;;;;2.41;77.46;97485.13;5051093;28;20044;-74
2022/03/19 00:37:48;;;;;;;34.65;18.15;;;;;;;2.43;77.18;97484.00;5049313;28;20049;-75
2022/03/19 00:40:16;;;;;;;37.47;19.63;;;;;;;2.50;76.45;97484.16;5048560;28;20070;-75
2022/03/19 00:42:42;;;;;;;35.03;19.70;;;;;;;2.51;76.76;97475.34;5047944;28;20048;-74
2022/03/19 00:45:11;;;;;;;39.65;19.92;;;;;;;2.28;77.90;97474.47;5055335;28;20041;-75
2022/03/19 00:47:37;;;;;;;37.90;20.15;;;;;;;2.24;77.95;97474.81;5058253;28;20532;-74
2022/03/19 00:50:04;;;;;;;37.47;20.17;;;;;;;2.31;77.67;97474.94;5066547;28;20037;-74
2022/03/19 00:52:30;;;;;;;39.13;20.00;;;;;;;2.24;78.04;97474.81;5050674;28;20132;-74
2022/03/19 00:54:55;;;;;;;37.05;20.30;;;;;;;2.22;77.53;97476.75;5068907;28;20033;-75
2022/03/19 00:57:21;;;;;;;38.45;19.42;;;;;;;2.23;77.52;97473.19;5056298;28;20498;-74
2022/03/19 00:59:47;;;;;;;40.67;19.88;;;;;;;2.12;78.40;97478.75;5060313;28;20040;-75
2022/03/19 01:02:13;;;;;;;41.83;20.48;;;;;;;2.15;78.22;97470.63;5054639;28;20522;-73
2022/03/19 01:04:38;;;;;;;40.83;20.08;;;;;;;2.10;79.42;97472.91;5051903;28;20033;-75
2022/03/19 01:07:04;;;;;;;40.05;20.98;;;;;;;2.03;79.03;97471.97;5056025;28;20048;-75
2022/03/19 01:09:30;;;;;;;39.10;20.95;;;;;;;2.00;79.71;97467.09;5052224;28;20052;-75
2022/03/19 01:11:55;;;;;;;40.78;20.88;;;;;;;2.05;79.09;97464.81;5058500;28;20129;-74
2022/03/19 01:14:21;;;;;;;39.72;21.02;;;;;;;2.06;79.41;97456.03;5056736;28;20037;-73
2022/03/19 01:16:47;;;;;;;40.10;20.73;;;;;;;2.01;79.62;97453.97;5054797;28;20045;-73
2022/03/19 01:19:12;;;;;;;39.08;21.30;;;;;;;1.97;79.47;97457.03;5066859;28;20044;-73
2022/03/19 01:21:39;;;;;;;40.45;21.90;;;;;;;1.89;79.91;97450.88;5053437;28;20049;-73
2022/03/19 01:24:05;;;;;;;40.88;21.13;;;;;;;1.90;80.63;97451.72;5051307;28;20041;-72
2022/03/19 01:26:31;;;;;;;37.70;20.05;;;;;;;1.97;80.46;97446.63;5061875;28;20072;-73
2022/03/19 01:28:58;;;;;;;39.75;21.27;;;;;;;1.92;80.01;97438.56;5061155;28;20115;-73
2022/03/19 01:31:26;;;;;;;43.88;23.10;;;;;;;1.88;80.72;97428.50;5052570;28;20498;-73
2022/03/19 01:33:55;;;;;;;39.08;20.13;;;;;;;1.84;80.68;97427.22;5060942;28;20045;-73
2022/03/19 01:36:20;;;;;;;40.22;21.65;;;;;;;1.79;80.63;97426.91;5051222;28;20044;-72
2022/03/19 01:38:46;;;;;;;42.38;21.83;;;;;;;1.76;81.72;97424.63;5057848;28;20040;-72
2022/03/19 01:41:11;;;;;;;43.72;21.40;;;;;;;1.75;81.06;97417.81;5060418;28;20056;-73
2022/03/19 01:43:38;;;;;;;39.20;21.30;;;;;;;1.66;82.07;97418.81;5050882;28;20041;-73
2022/03/19 01:46:04;;;;;;;38.03;20.25;;;;;;;1.74;81.83;97416.22;5051132;28;20067;-73
2022/03/19 01:48:29;;;;;;;41.03;21.63;;;;;;;1.62;82.37;97417.53;5050752;28;20041;-73
2022/03/19 01:50:55;;;;;;;43.80;23.52;;;;;;;1.56;82.28;97409.41;5057233;28;20510;-73
2022/03/19 01:53:20;;;;;;;43.97;21.73;;;;;;;1.62;82.77;97413.13;5060303;28;20543;-72
2022/03/19 01:55:46;;;;;;;42.85;22.35;;;;;;;1.43;82.85;97409.13;5061309;28;20666;-73
2022/03/19 01:58:12;;;;;;;45.85;22.77;;;;;;;1.44;82.98;97405.56;5052427;28;20051;-73
2022/03/19 02:00:38;;;;;;;42.90;22.45;;;;;;;1.50;82.50;97399.72;5057173;28;20052;-73
2022/03/19 02:03:05;;;;;;;43.55;22.08;;;;;;;1.56;82.94;97399.03;5069003;28;20521;-73
2022/03/19 02:05:31;;;;;;;42.58;22.95;;;;;;;1.46;83.46;97403.59;5059003;28;20044;-72
2022/03/19 02:07:57;;;;;;;47.00;23.42;;;;;;;1.41;83.44;97402.47;5050783;28;20052;-73
2022/03/19 02:10:23;;;;;;;47.53;23.52;;;;;;;1.37;83.77;97409.78;5050541;28;20116;-73
2022/03/19 02:12:50;;;;;;;45.75;22.63;;;;;;;1.39;83.40;97407.81;5051624;28;20095;-73
2022/03/19 02:15:16;;;;;;;45.22;23.05;;;;;;;1.43;82.93;97409.13;5050140;28;20067;-72
2022/03/19 02:17:42;;;;;;;44.35;21.77;;;;;;;1.40;83.13;97403.47;5050598;28;20045;-73
2022/03/19 02:20:08;;;;;;;45.85;22.70;;;;;;;1.35;83.10;97406.53;5058880;28;20509;-73
2022/03/19 02:22:34;;;;;;;53.42;22.52;;;;;;;1.38;83.00;97398.44;5051110;28;20041;-73
2022/03/19 02:27:45;;;;;;;45.23;21.93;;;;;;;1.24;83.80;97406.88;5050416;28;20041;-73
2022/03/19 02:30:12;;;;;;;47.45;23.52;;;;;;;0.85;85.39;97406.53;5059762;28;20288;-73
2022/03/19 02:32:39;;;;;;;50.17;23.67;;;;;;;0.62;86.54;97406.34;5051055;28;20111;-73
2022/03/19 02:35:06;;;;;;;47.10;23.77;;;;;;;0.63;87.22;97407.97;5055735;28;20065;-73
2022/03/19 02:37:44;;;;;;;46.45;23.70;;;;;;;0.63;87.23;97407.16;5070044;28;20048;-73
2022/03/19 02:40:12;;;;;;;46.67;22.77;;;;;;;0.76;85.42;97407.53;5059290;28;20095;-73
2022/03/19 02:42:38;;;;;;;50.33;23.70;;;;;;;0.64;85.44;97408.78;5066612;28;20450;-73
2022/03/19 02:45:06;;;;;;;44.20;23.75;;;;;;;0.45;87.73;97415.88;5052874;28;20045;-73
2022/03/19 02:47:32;;;;;;;48.58;23.88;;;;;;;0.41;86.77;97404.19;5069653;28;20044;-73
2022/03/19 02:49:59;;;;;;;48.30;23.30;;;;;;;0.37;86.65;97413.25;5052125;28;20049;-73
2022/03/19 02:52:24;;;;;;;43.95;22.75;;;;;;;0.28;87.06;97409.81;5049610;28;20044;-73
2022/03/19 02:54:50;;;;;;;46.63;24.52;;;;;;;0.36;86.97;97408.22;5057507;28;20452;-73
2022/03/19 02:57:15;;;;;;;48.55;24.08;;;;;;;0.29;87.19;97395.13;5062330;28;20040;-73
2022/03/19 02:59:41;;;;;;;54.33;24.95;;;;;;;0.30;87.57;97396.72;5054658;28;20048;-73
2022/03/19 03:02:07;;;;;;;50.30;24.33;;;;;;;0.15;87.53;97394.72;5056110;28;20052;-73
2022/03/19 03:04:34;;;;;;;45.88;23.65;;;;;;;0.07;87.92;97393.88;5048829;28;20048;-73
2022/03/19 03:07:03;;;;;;;46.72;23.25;;;;;;;0.00;88.18;97396.31;5049635;28;20052;-73
2022/03/19 03:09:31;;;;;;;49.00;24.00;;;;;;;-0.10;88.93;97390.41;5049430;28;20045;-73
2022/03/19 03:12:02;;;;;;;46.15;23.17;;;;;;;-0.03;88.19;97386.25;5054592;28;20044;-73
2022/03/19 03:14:27;;;;;;;46.78;22.75;;;;;;;-0.14;88.65;97378.75;5067754;28;20032;-73
2022/03/19 03:16:53;;;;;;;45.50;22.83;;;;;;;-0.29;88.87;97381.91;5063153;28;20123;-73
2022/03/19 03:19:20;;;;;;;44.97;22.02;;;;;;;-0.42;90.20;97381.53;5059186;28;20048;-73
2022/03/19 03:21:46;;;;;;;43.95;22.65;;;;;;;-0.44;88.82;97383.47;5055694;28;20041;-73
2022/03/19 03:24:13;;;;;;;49.35;22.60;;;;;;;-0.48;88.67;97382.16;5056956;28;20037;-73
2022/03/19 03:26:40;;;;;;;47.97;23.42;;;;;;;-0.61;89.01;97378.19;5049132;28;20083;-73
2022/03/19 03:29:06;;;;;;;49.92;22.75;;;;;;;-0.67;89.59;97378.81;5049357;28;20091;-73
2022/03/19 03:31:32;;;;;;;46.42;22.60;;;;;;;-0.67;89.13;97389.16;5052153;28;20123;-73
2022/03/19 03:33:58;;;;;;;46.08;22.60;;;;;;;-0.65;89.96;97376.88;5054624;28;20037;-73
2022/03/19 03:36:23;;;;;;;45.20;21.95;;;;;;;-0.64;89.75;97372.53;5055726;28;20047;-72
2022/03/19 03:38:49;;;;;;;51.28;22.92;;;;;;;-0.70;89.48;97368.78;5050112;28;20037;-73
2022/03/19 03:41:15;;;;;;;49.15;22.52;;;;;;;-0.76;89.96;97369.34;5055048;28;20041;-73
2022/03/19 03:43:41;;;;;;;49.97;22.75;;;;;;;-0.80;90.72;97373.25;5051920;28;20037;-73
2022/03/19 03:46:07;;;;;;;50.28;23.10;;;;;;;-0.85;91.06;97375.44;5053493;28;20040;-73
2022/03/19 03:48:36;;;;;;;49.80;23.33;;;;;;;-1.00;91.66;97378.56;5053371;28;20040;-73
2022/03/19 03:51:04;;;;;;;45.63;22.85;;;;;;;-0.91;91.26;97372.50;5060996;28;20044;-73
2022/03/19 03:53:30;;;;;;;46.33;22.70;;;;;;;-1.00;90.67;97373.41;5050191;28;20044;-73
2022/03/19 03:55:57;;;;;;;51.30;23.77;;;;;;;-1.38;93.65;97377.91;5048272;28;20037;-73
2022/03/19 03:58:25;;;;;;;47.03;23.85;;;;;;;-1.30;93.93;97378.00;5048458;28;20049;-73
2022/03/19 04:00:52;;;;;;;52.42;23.42;;;;;;;-1.19;92.37;97373.56;5051213;28;20107;-73
2022/03/19 04:03:18;;;;;;;51.60;23.60;;;;;;;-1.22;92.79;97378.06;5059920;28;20045;-72
2022/03/19 04:05:43;;;;;;;52.03;23.92;;;;;;;-1.43;94.06;97378.38;5054109;28;20041;-73
2022/03/19 04:08:09;;;;;;;51.75;25.15;;;;;;;-1.42;94.33;97368.88;5052337;28;20044;-72
2022/03/19 04:10:35;;;;;;;57.90;25.70;;;;;;;-1.32;94.08;97364.44;5058513;28;20125;-73
2022/03/19 04:13:01;;;;;;;57.47;25.98;;;;;;;-1.22;94.89;97364.38;5056341;28;20044;-73
2022/03/19 04:15:26;;;;;;;61.35;27.52;;;;;;;-1.25;94.61;97370.63;5048583;28;20076;-73
2022/03/19 04:17:52;;;;;;;55.78;25.85;;;;;;;-1.23;93.81;97362.72;5048643;28;20048;-72
2022/03/19 04:20:18;;;;;;;56.00;25.38;;;;;;;-1.25;93.77;97357.72;5063951;28;20071;-72
2022/03/19 04:22:46;;;;;;;62.95;27.50;;;;;;;-1.15;93.65;97364.56;5056694;28;20115;-72
2022/03/19 04:25:16;;;;;;;57.08;26.23;;;;;;;-1.22;93.70;97348.88;5047974;28;20813;-73
2022/03/19 04:27:43;;;;;;;55.08;26.35;;;;;;;-1.30;93.31;97357.34;5051672;28;20048;-73
2022/03/19 04:30:14;;;;;;;62.60;26.60;;;;;;;-1.38;94.23;97357.25;5068463;28;20073;-73
2022/03/19 04:32:52;;;;;;;62.28;27.13;;;;;;;-1.33;93.70;97347.31;5052794;28;20406;-73
2022/03/19 04:38:15;;;;;;;57.92;25.15;;;;;;;-1.42;94.22;97358.53;5052387;28;20411;-73
2022/03/19 04:40:42;;;;;;;53.72;25.90;;;;;;;-1.44;94.46;97363.03;5054224;28;20100;-73
2022/03/19 04:43:09;;;;;;;51.88;25.02;;;;;;;-1.38;94.16;97359.84;5063866;28;20045;-73
2022/03/19 04:45:38;;;;;;;62.88;27.52;;;;;;;-1.38;93.99;97354.69;5071983;28;20041;-73
2022/03/19 04:48:05;;;;;;;56.50;27.02;;;;;;;-1.32;94.54;97351.53;5069395;28;20051;-72
2022/03/19 04:50:31;;;;;;;65.57;27.85;;;;;;;-1.42;94.80;97355.97;5067466;28;20044;-72
2022/03/19 04:52:58;;;;;;;67.32;28.40;;;;;;;-1.63;95.98;97362.19;5054460;28;20045;-73
2022/03/19 04:55:25;;;;;;;61.13;27.48;;;;;;;-1.58;95.21;97354.00;5055901;28;20052;-73
2022/03/19 04:57:51;;;;;;;61.92;26.33;;;;;;;-1.57;93.56;97356.47;5068151;28;20041;-73
2022/03/19 05:00:20;;;;;;;59.78;25.83;;;;;;;-1.51;93.93;97356.81;5054293;28;20041;-72
2022/03/19 05:02:45;;;;;;;63.25;26.92;;;;;;;-1.50;94.22;97345.53;5061177;28;20048;-73
2022/03/19 05:05:12;;;;;;;53.40;26.23;;;;;;;-1.48;94.49;97351.38;5060799;28;20041;-72
2022/03/19 05:07:39;;;;;;;64.28;27.05;;;;;;;-1.60;95.02;97346.41;5053502;28;20041;-73
2022/03/19 05:12:51;;;;;;;60.17;27.65;;;;;;;-1.64;94.46;97344.28;5067898;28;20048;-73
2022/03/19 05:15:17;;;;;;;65.93;29.55;;;;;;;-1.60;94.88;97341.25;5062031;28;20113;-73
2022/03/19 05:17:43;;;;;;;60.90;28.35;;;;;;;-1.63;94.74;97344.13;5067507;28;20048;-73
2022/03/19 05:20:10;;;;;;;64.15;28.85;;;;;;;-1.80;96.32;97344.94;5068181;28;20044;-73
2022/03/19 05:22:36;;;;;;;65.82;29.58;;;;;;;-1.71;95.71;97343.25;5061495;28;20070;-72
2022/03/19 05:25:02;;;;;;;70.60;30.52;;;;;;;-1.62;95.64;97326.88;5061379;28;20052;-73
2022/03/19 05:27:28;;;;;;;67.68;29.20;;;;;;;-1.61;96.32;97337.06;5066566;28;20048;-73
2022/03/19 05:29:54;;;;;;;65.25;29.33;;;;;;;-1.66;96.03;97335.88;5061942;28;20033;-73
2022/03/19 05:32:21;;;;;;;64.10;29.85;;;;;;;-1.61;96.00;97329.31;5056515;28;20041;-73
2022/03/19 05:34:47;;;;;;;75.03;31.33;;;;;;;-1.61;96.59;97333.66;5060219;28;20041;-75
2022/03/19 05:37:14;;;;;;;70.28;29.08;;;;;;;-1.57;96.13;97334.97;5063061;28;20140;-73
2022/03/19 05:39:40;;;;;;;69.57;29.67;;;;;;;-1.62;95.75;97327.69;5050201;28;20044;-75
2022/03/19 05:42:06;;;;;;;70.50;29.02;;;;;;;-1.71;96.83;97323.41;5051071;28;20398;-73
2022/03/19 05:44:32;;;;;;;67.00;28.60;;;;;;;-1.72;96.49;97320.97;5051699;28;20742;-73
2022/03/19 05:46:58;;;;;;;66.53;27.90;;;;;;;-1.66;96.21;97328.94;5066075;28;20041;-73
2022/03/19 05:49:25;;;;;;;66.53;29.15;;;;;;;-1.73;96.88;97325.31;5060254;28;20039;-73
2022/03/19 05:51:52;;;;;;;72.47;30.42;;;;;;;-1.76;97.26;97323.03;5053902;28;20037;-73
2022/03/19 05:54:17;;;;;;;62.58;29.30;;;;;;;-1.68;95.76;97323.13;5061145;28;20428;-73
2022/03/19 05:56:43;;;;;;;69.43;28.15;;;;;;;-1.62;95.34;97327.69;5053139;28;20048;-73
2022/03/19 05:59:09;;;;;;;66.63;30.75;;;;;;;-1.61;96.03;97329.31;5059917;28;20041;-73
2022/03/19 06:01:35;;;;;;;79.15;30.88;;;;;;;-1.64;97.95;97324.47;5051697;28;20041;-73
2022/03/19 06:04:00;;;;;;;73.35;31.75;;;;;;;-1.52;97.47;97329.38;5050821;28;20037;-73
2022/03/19 06:06:27;;;;;;;75.13;31.60;;;;;;;-1.48;96.99;97325.53;5065166;28;20044;-73
2022/03/19 06:08:53;;;;;;;72.70;30.45;;;;;;;-1.50;97.76;97315.34;5064074;28;20570;-73
2022/03/19 06:11:19;;;;;;;77.20;31.67;;;;;;;-1.33;97.05;97316.31;5062677;28;20044;-73
2022/03/19 06:13:44;;;;;;;74.05;30.73;;;;;;;-1.33;96.89;97324.06;5064427;28;20033;-73
2022/03/19 06:16:10;;;;;;;74.75;33.08;;;;;;;-1.45;98.62;97317.50;5067848;28;20036;-73
2022/03/19 06:18:36;;;;;;;75.53;32.75;;;;;;;-1.44;98.89;97313.97;5068568;28;20044;-73
2022/03/19 06:21:03;;;;;;;74.30;32.53;;;;;;;-1.41;99.67;97308.50;5055741;28;20045;-73
2022/03/19 06:23:28;;;;;;;70.75;33.25;;;;;;;-1.29;99.15;97306.50;5049945;28;20563;-73
2022/03/19 06:25:54;;;;;;;78.05;32.40;;;;;;;-1.12;99.74;97313.41;5050342;28;20037;-73
2022/03/19 06:28:20;;;;;;;78.95;34.72;;;;;;;-0.98;99.37;97309.44;5049429;28;20037;-73
2022/03/19 06:30:45;;;;;;;78.20;34.55;;;;;;;-0.77;99.11;97310.88;5053767;28;20398;-72
2022/03/19 06:33:14;;;;;;;83.68;35.33;;;;;;;-0.70;98.22;97307.53;5064100;28;20044;-73
2022/03/19 06:38:27;;;;;;;75.03;32.17;;;;;;;-0.55;97.75;97305.19;5050086;28;20041;-73
2022/03/19 06:40:53;;;;;;;82.85;34.10;;;;;;;-0.36;96.53;97308.47;5065069;28;20060;-73
2022/03/19 06:43:19;;;;;;;88.68;35.20;;;;;;;-0.18;95.78;97306.59;5048542;28;20080;-73
2022/03/19 06:45:45;;;;;;;78.15;34.70;;;;;;;0.02;94.60;97305.56;5051823;28;20040;-73
2022/03/19 06:48:10;;;;;;;87.25;33.95;;;;;;;0.05;94.29;97306.03;5050138;28;20076;-73
2022/03/19 06:50:36;;;;;;;81.32;33.60;;;;;;;0.16;93.70;97308.31;5053389;28;20040;-72
2022/03/19 06:53:02;;;;;;;85.22;35.45;;;;;;;0.23;93.54;97292.13;5063999;28;20036;-73
2022/03/19 06:55:28;;;;;;;87.55;35.25;;;;;;;0.29;93.05;97296.69;5054502;28;20033;-75
2022/03/19 06:57:54;;;;;;;83.90;35.00;;;;;;;0.45;91.87;97296.72;5057658;28;20036;-71
2022/03/19 07:00:20;;;;;;;82.05;34.25;;;;;;;0.54;90.92;97294.13;5059882;28;20112;-69
2022/03/19 07:02:51;;;;;;;93.20;36.13;;;;;;;0.59;90.60;97289.25;5055196;28;20091;-70
2022/03/19 07:05:24;;;;;;;92.63;35.33;;;;;;;0.68;89.33;97280.53;5059174;28;20193;-73
2022/03/19 07:07:51;;;;;;;79.38;33.58;;;;;;;0.75;88.18;97281.50;5061113;28;20486;-72
2022/03/19 07:10:19;;;;;;;88.32;36.58;;;;;;;0.82;86.90;97272.09;5059605;28;20071;-73
2022/03/19 07:13:03;;;;;;;96.30;37.55;;;;;;;0.89;86.69;97281.78;5049492;28;20037;-73
2022/03/19 07:15:29;;;;;;;91.55;34.58;;;;;;;0.99;85.77;97285.84;5052525;28;20045;-73
2022/03/19 07:17:56;;;;;;;90.70;35.35;;;;;;;1.05;84.90;97274.00;5058770;28;20093;-72
2022/03/19 07:20:22;;;;;;;103.85;37.38;;;;;;;1.11;85.01;97267.34;5056544;28;20044;-72
2022/03/19 07:22:52;;;;;;;96.60;38.70;;;;;;;1.12;84.26;97267.19;5053321;28;20028;-72
2022/03/19 07:25:20;;;;;;;85.60;33.83;;;;;;;1.19;83.35;97268.13;5048686;28;20483;-72
2022/03/19 07:27:46;;;;;;;99.90;37.72;;;;;;;1.29;83.21;97269.72;5063729;28;20123;-73
2022/03/19 07:30:13;;;;;;;102.93;37.88;;;;;;;1.32;82.88;97265.03;5060634;28;20052;-72
2022/03/19 07:32:39;;;;;;;118.15;37.58;;;;;;;1.45;80.91;97267.09;5053814;28;20118;-73
2022/03/19 07:35:06;;;;;;;96.70;36.67;;;;;;;1.54;80.74;97276.44;5053783;28;20041;-75
2022/03/19 07:37:33;;;;;;;97.95;36.45;;;;;;;1.61;79.88;97270.56;5052932;28;20120;-72
2022/03/19 07:39:59;;;;;;;101.15;36.90;;;;;;;1.80;78.58;97272.75;5053221;28;20052;-73
2022/03/19 07:42:25;;;;;;;99.85;36.15;;;;;;;1.79;78.15;97273.72;5060268;28;20040;-72
2022/03/19 07:44:51;;;;;;;96.05;35.55;;;;;;;1.79;76.86;97268.53;5057965;28;20102;-73
2022/03/19 07:47:17;;;;;;;105.13;37.63;;;;;;;1.83;77.09;97263.84;5052495;28;20534;-72
2022/03/19 07:49:43;;;;;;;103.50;38.33;;;;;;;1.83;76.13;97264.63;5058324;28;20062;-72
2022/03/19 07:52:10;;;;;;;100.32;36.35;;;;;;;1.99;76.10;97258.53;5067691;28;20413;-73
2022/03/19 07:54:36;;;;;;;105.65;38.53;;;;;;;2.02;74.25;97262.59;5054057;28;20039;-72
2022/03/19 07:57:06;;;;;;;103.60;37.28;;;;;;;2.06;73.67;97263.88;5049099;28;20494;-72
2022/03/19 07:59:34;;;;;;;105.70;36.85;;;;;;;2.14;73.85;97261.22;5050277;28;20056;-72
2022/03/19 08:02:00;;;;;;;101.40;36.88;;;;;;;2.23;72.70;97260.16;5054018;28;20045;-73
2022/03/19 08:04:25;;;;;;;91.18;34.75;;;;;;;2.30;71.84;97255.09;5053012;28;20044;-73
2022/03/19 08:06:55;;;;;;;100.53;37.50;;;;;;;2.39;71.73;97253.25;5055521;28;20083;-75
2022/03/19 08:09:23;;;;;;;86.20;32.67;;;;;;;2.46;70.13;97248.16;5061564;28;20036;-71
2022/03/19 08:11:49;;;;;;;87.53;33.22;;;;;;;2.49;67.62;97246.03;5059247;28;20048;-73
2022/03/19 08:14:16;;;;;;;85.35;31.92;;;;;;;2.53;67.20;97243.88;5048223;28;20037;-72
2022/03/19 08:16:42;;;;;;;96.53;32.92;;;;;;;2.53;67.00;97239.50;5048399;28;20045;-71
2022/03/19 08:19:10;;;;;;;93.35;34.97;;;;;;;2.63;65.75;97234.06;5049983;28;20041;-71
2022/03/19 08:21:38;;;;;;;86.70;32.03;;;;;;;2.79;66.22;97238.28;5049444;28;20041;-71
2022/03/19 08:24:05;;;;;;;74.38;28.58;;;;;;;2.76;64.94;97230.84;5048534;28;20037;-71
2022/03/19 08:26:31;;;;;;;82.18;31.23;;;;;;;2.80;64.54;97229.47;5048249;28;20037;-71
2022/03/19 08:28:57;;;;;;;82.05;31.77;;;;;;;2.91;65.31;97216.06;5055912;28;20135;-71
2022/03/19 08:31:23;;;;;;;74.25;29.88;;;;;;;2.92;63.53;97222.88;5063475;28;20049;-71
2022/03/19 08:33:48;;;;;;;77.28;29.58;;;;;;;3.03;63.22;97219.03;5048530;28;20049;-71
2022/03/19 08:36:14;;;;;;;76.13;30.02;;;;;;;3.11;64.18;97225.94;5047573;28;20065;-72
2022/03/19 08:41:24;;;;;;;81.43;31.67;;;;;;;3.22;63.08;97220.28;5048623;28;20059;-72
2022/03/19 08:43:50;;;;;;;78.68;32.08;;;;;;;3.31;62.39;97209.78;5067173;28;20545;-71
2022/03/19 08:46:16;;;;;;;75.20;29.75;;;;;;;3.40;63.08;97206.09;5056564;28;20037;-71
2022/03/19 08:48:41;;;;;;;76.90;29.88;;;;;;;3.45;62.13;97212.38;5049505;28;20041;-71
2022/03/19 08:53:51;;;;;;;78.93;30.58;;;;;;;3.51;61.48;97205.63;5048058;28;20041;-71
2022/03/19 08:56:17;;;;;;;75.38;28.60;;;;;;;3.56;61.12;97208.50;5048510;28;20041;-72
2022/03/19 08:58:43;;;;;;;70.72;29.45;;;;;;;3.57;60.31;97204.88;5051879;28;20041;-71
2022/03/19 09:01:09;;;;;;;79.50;29.15;;;;;;;3.64;59.85;97199.78;5048216;28;20045;-70
2022/03/19 09:03:34;;;;;;;67.80;28.98;;;;;;;3.79;59.92;97197.13;5050652;28;20087;-70
2022/03/19 09:06:00;;;;;;;68.82;28.92;;;;;;;3.88;60.15;97196.03;5064564;28;20410;-70
2022/03/19 09:08:26;;;;;;;74.22;28.35;;;;;;;3.96;59.92;97192.47;5051988;28;20045;-70
2022/03/19 09:10:52;;;;;;;75.05;30.38;;;;;;;3.98;59.27;97188.72;5060159;28;20045;-69
2022/03/19 09:13:18;;;;;;;79.25;30.02;;;;;;;4.09;59.70;97176.16;5050458;28;20069;-71
2022/03/19 09:15:44;;;;;;;70.03;28.35;;;;;;;4.40;60.54;97172.44;5065744;28;20041;-70
2022/03/19 09:18:10;;;;;;;70.85;30.58;;;;;;;4.46;58.26;97171.66;5064195;28;20041;-71
2022/03/19 09:20:35;;;;;;;66.57;28.63;;;;;;;4.73;58.95;97161.44;5063443;28;20175;-72
2022/03/19 09:23:03;;;;;;;70.38;30.58;;;;;;;4.60;59.11;97162.94;5059655;28;20045;-74
2022/03/19 09:25:29;;;;;;;70.18;28.92;;;;;;;4.58;59.40;97154.50;5061592;28;20048;-73
2022/03/19 09:27:55;;;;;;;74.85;29.75;;;;;;;4.75;57.99;97149.00;5060982;28;20051;-74
2022/03/19 09:30:20;;;;;;;74.72;29.52;;;;;;;4.79;58.51;97155.44;5051202;28;20410;-74
2022/03/19 09:32:46;;;;;;;71.80;30.65;;;;;;;4.92;58.42;97145.06;5061016;28;20047;-72
2022/03/19 09:35:11;;;;;;;65.85;28.67;;;;;;;5.19;59.29;97140.78;5057184;28;20045;-71
2022/03/19 09:37:37;;;;;;;68.75;29.98;;;;;;;5.24;57.25;97137.59;5060505;28;20048;-73
2022/03/19 09:40:04;;;;;;;75.03;31.27;;;;;;;5.26;56.57;97130.38;5057367;28;20037;-75
2022/03/19 09:42:32;;;;;;;74.45;30.67;;;;;;;5.28;56.01;97132.78;5051615;28;20041;-72
2022/03/19 09:44:59;;;;;;;64.97;29.80;;;;;;;5.29;56.29;97122.16;5051663;28;20079;-72
2022/03/19 09:47:26;;;;;;;66.88;29.95;;;;;;;5.38;56.07;97117.56;5063517;28;20053;-73
2022/03/19 09:49:52;;;;;;;64.60;29.25;;;;;;;5.60;56.24;97126.03;5061863;28;20592;-73
2022/03/19 09:52:24;;;;;;;69.55;28.88;;;;;;;5.72;55.64;97115.84;5051898;28;20040;-71
2022/03/19 09:54:50;;;;;;;68.28;30.23;;;;;;;5.87;54.96;97116.44;5053555;28;20040;-73
2022/03/19 09:57:15;;;;;;;71.32;30.73;;;;;;;5.87;53.68;97110.44;5062764;28;20094;-73
2022/03/19 09:59:41;;;;;;;75.53;29.77;;;;;;;5.79;53.57;97102.78;5061094;28;20131;-71
2022/03/19 10:02:12;;;;;;;67.60;28.45;;;;;;;6.16;52.78;97103.22;5056355;28;20118;-71
2022/03/19 10:04:41;;;;;;;56.05;27.00;;;;;;;6.23;52.25;97093.56;5055800;28;20464;-72
2022/03/19 10:09:52;;;;;;;51.72;25.35;;;;;;;6.76;50.41;97088.25;5058911;28;20083;-73
2022/03/19 10:12:23;;;;;;;57.70;27.60;;;;;;;6.57;49.59;97083.88;5062629;28;20045;-73
2022/03/19 10:14:51;;;;;;;63.35;26.90;;;;;;;6.93;48.34;97082.56;5064423;28;20047;-72
2022/03/19 10:17:33;;;;;;;53.17;25.15;;;;;;;7.17;48.40;97083.69;5053762;28;20049;-71
2022/03/19 10:20:04;;;;;;;54.72;25.13;;;;;;;7.75;46.69;97084.56;5050897;28;20301;-72
2022/03/19 10:22:30;;;;;;;63.90;25.08;;;;;;;8.67;44.59;97076.94;5050172;28;20068;-73
2022/03/19 10:24:58;;;;;;;55.38;25.48;;;;;;;9.57;42.67;97074.63;5049775;28;20033;-73
2022/03/19 10:27:24;;;;;;;52.85;24.85;;;;;;;8.94;41.39;97070.59;5052652;28;20051;-72
2022/03/19 10:30:06;;;;;;;52.30;26.52;;;;;;;8.95;42.28;97066.94;5061327;28;20037;-71
2022/03/19 10:32:31;;;;;;;53.95;25.58;;;;;;;8.72;42.88;97057.09;5060343;28;20037;-71
2022/03/19 10:34:57;;;;;;;55.63;25.48;;;;;;;10.15;40.48;97054.72;5061985;28;20439;-72
2022/03/19 10:37:52;;;;;;;51.20;25.48;;;;;;;10.14;40.04;97047.88;5054517;28;20041;-73
2022/03/19 10:40:18;;;;;;;;;;;;;;;10.49;40.18;97048.91;5056207;28;20397;-72
2022/03/19 10:42:44;;;;;;;58.72;28.25;;;;;;;9.83;40.87;97041.88;5055909;28;19986;-72
2022/03/19 10:45:18;;;;;;;60.17;27.25;;;;;;;10.16;39.24;97040.53;5060668;28;20040;-71
2022/03/19 10:47:48;;;;;;;64.40;28.13;;;;;;;10.03;38.53;97040.78;5060810;28;20533;-72
2022/03/19 10:50:22;;;;;;;57.15;27.90;;;;;;;10.16;37.91;97035.28;5053140;28;20060;-71
2022/03/19 10:52:48;;;;;;;56.40;26.90;;;;;;;10.63;38.58;97033.66;5057507;28;20041;-71
2022/03/19 10:55:15;;;;;;;58.88;28.05;;;;;;;10.58;37.54;97031.72;5051748;28;20047;-73
2022/03/19 10:57:41;;;;;;;57.67;27.90;;;;;;;10.52;37.77;97025.56;5057748;28;20037;-73
2022/03/19 11:00:08;;;;;;;58.55;29.80;;;;;;;9.76;38.88;97022.00;5054990;28;20044;-72
2022/03/19 11:02:38;;;;;;;58.17;28.08;;;;;;;10.35;37.64;97014.13;5060424;28;20048;-74
2022/03/19 11:05:06;;;;;;;58.70;27.08;;;;;;;11.20;37.21;97011.84;5056351;28;20119;-73
2022/03/19 11:07:34;;;;;;;62.55;26.90;;;;;;;12.40;34.98;96995.03;5067612;28;20059;-74
2022/03/19 11:10:04;;;;;;;50.53;25.60;;;;;;;11.17;34.33;96992.03;5056212;28;20091;-72
2022/03/19 11:12:32;;;;;;;51.55;25.90;;;;;;;12.96;33.97;96990.41;5060822;28;20040;-72
2022/03/19 11:15:01;;;;;;;61.10;24.20;;;;;;;12.27;32.70;96982.97;5053865;28;20048;-73
2022/03/19 11:17:30;;;;;;;52.70;24.90;;;;;;;12.85;32.45;96972.84;5049789;28;20048;-73
2022/03/19 11:20:02;;;;;;;52.05;26.38;;;;;;;11.41;33.75;96960.31;5049186;28;20045;-73
2022/03/19 11:22:39;;;;;;;53.75;26.92;;;;;;;12.12;33.80;96959.78;5052456;28;20048;-74
2022/03/19 11:25:13;;;;;;;57.60;27.88;;;;;;;13.09;32.56;96956.72;5047860;28;20105;-73
2022/03/19 11:27:42;;;;;;;56.95;26.00;;;;;;;12.11;34.03;96959.00;5052827;28;20044;-72
2022/03/19 11:30:26;;;;;;;49.35;24.85;;;;;;;12.49;34.18;96959.22;5055061;28;20091;-75
2022/03/19 11:33:07;;;;;;;50.08;25.55;;;;;;;11.85;33.44;96949.91;5059278;28;20047;-72
2022/03/19 11:35:35;;;;;;;51.05;24.83;;;;;;;12.99;32.70;96942.34;5050944;28;20045;-74
2022/03/19 11:38:13;;;;;;;50.25;26.50;;;;;;;11.55;32.00;96940.50;5049296;28;20041;-74
2022/03/19 11:40:42;;;;;;;49.03;24.88;;;;;;;12.04;32.26;96934.63;5061533;28;20430;-74